sensor_id;sensor_type;location;lat;lon;timestamp;temperature;humidity
38325;DHT22;24126;52.672;13.622;2024-03-22T00:02:13;13.60;72.60
38325;DHT22;24126;52.672;13.622;2024-03-22T00:04:39;13.70;72.70
38325;DHT22;24126;52.672;13.622;2024-03-22T00:07:06;13.70;72.70
38325;DHT22;24126;52.672;13.622;2024-03-22T00:09:32;13.70;72.70
38325;DHT22;24126;52.672;13.622;2024-03-22T00:11:59;13.70;72.70
38325;DHT22;24126;52.672;13.622;2024-03-22T00:14:25;13.60;72.60
38325;DHT22;24126;52.672;13.622;2024-03-22T00:16:52;13.60;72.60
38325;DHT22;24126;52.672;13.622;2024-03-22T00:19:19;13.60;72.80
38325;DHT22;24126;52.672;13.622;2024-03-22T00:21:46;13.60;72.80
38325;DHT22;24126;52.672;13.622;2024-03-22T00:24:12;13.60;72.80
38325;DHT22;24126;52.672;13.622;2024-03-22T00:26:39;13.60;72.80
38325;DHT22;24126;52.672;13.622;2024-03-22T00:29:05;13.60;72.90
38325;DHT22;24126;52.672;13.622;2024-03-22T00:31:32;13.60;72.90
38325;DHT22;24126;52.672;13.622;2024-03-22T00:33:58;13.60;72.90
38325;DHT22;24126;52.672;13.622;2024-03-22T00:36:25;13.60;72.90
38325;DHT22;24126;52.672;13.622;2024-03-22T00:38:51;13.60;72.90
38325;DHT22;24126;52.672;13.622;2024-03-22T00:41:18;13.60;73.10
38325;DHT22;24126;52.672;13.622;2024-03-22T00:43:44;13.60;73.10
38325;DHT22;24126;52.672;13.622;2024-03-22T00:46:11;13.60;73.10
38325;DHT22;24126;52.672;13.622;2024-03-22T00:48:37;13.60;73.10
38325;DHT22;24126;52.672;13.622;2024-03-22T00:51:04;13.60;73.20
38325;DHT22;24126;52.672;13.622;2024-03-22T00:53:30;13.60;73.10
38325;DHT22;24126;52.672;13.622;2024-03-22T00:55:57;13.60;73.20
38325;DHT22;24126;52.672;13.622;2024-03-22T00:58:26;13.60;73.20
38325;DHT22;24126;52.672;13.622;2024-03-22T01:00:53;13.60;73.20
38325;DHT22;24126;52.672;13.622;2024-03-22T01:03:20;13.60;73.30
38325;DHT22;24126;52.672;13.622;2024-03-22T01:05:47;13.60;73.40
38325;DHT22;24126;52.672;13.622;2024-03-22T01:08:13;13.60;73.50
38325;DHT22;24126;52.672;13.622;2024-03-22T01:10:40;13.60;73.60
38325;DHT22;24126;52.672;13.622;2024-03-22T01:13:07;13.50;73.60
38325;DHT22;24126;52.672;13.622;2024-03-22T01:15:34;13.50;73.70
38325;DHT22;24126;52.672;13.622;2024-03-22T01:18:00;13.50;73.90
38325;DHT22;24126;52.672;13.622;2024-03-22T01:20:27;13.50;74.10
38325;DHT22;24126;52.672;13.622;2024-03-22T01:22:53;13.50;74.10
38325;DHT22;24126;52.672;13.622;2024-03-22T01:25:20;13.40;74.00
38325;DHT22;24126;52.672;13.622;2024-03-22T01:27:46;13.50;74.10
38325;DHT22;24126;52.672;13.622;2024-03-22T01:30:13;13.50;74.10
38325;DHT22;24126;52.672;13.622;2024-03-22T01:32:39;13.50;74.10
38325;DHT22;24126;52.672;13.622;2024-03-22T01:35:07;13.50;74.10
38325;DHT22;24126;52.672;13.622;2024-03-22T01:37:33;13.50;74.10
38325;DHT22;24126;52.672;13.622;2024-03-22T01:40:00;13.60;74.20
38325;DHT22;24126;52.672;13.622;2024-03-22T01:42:26;13.60;74.20
38325;DHT22;24126;52.672;13.622;2024-03-22T01:44:53;13.60;74.20
38325;DHT22;24126;52.672;13.622;2024-03-22T01:47:19;13.50;74.10
38325;DHT22;24126;52.672;13.622;2024-03-22T01:49:47;13.60;74.10
38325;DHT22;24126;52.672;13.622;2024-03-22T01:52:14;13.60;74.10
38325;DHT22;24126;52.672;13.622;2024-03-22T01:54:41;13.50;74.00
38325;DHT22;24126;52.672;13.622;2024-03-22T01:57:08;13.50;74.10
38325;DHT22;24126;52.672;13.622;2024-03-22T01:59:35;13.50;74.20
38325;DHT22;24126;52.672;13.622;2024-03-22T02:02:01;13.50;74.30
38325;DHT22;24126;52.672;13.622;2024-03-22T02:04:29;13.50;74.50
38325;DHT22;24126;52.672;13.622;2024-03-22T02:06:55;13.40;74.40
38325;DHT22;24126;52.672;13.622;2024-03-22T02:09:22;13.40;74.50
38325;DHT22;24126;52.672;13.622;2024-03-22T02:11:48;13.40;74.50
38325;DHT22;24126;52.672;13.622;2024-03-22T02:14:16;13.40;74.50
38325;DHT22;24126;52.672;13.622;2024-03-22T02:16:42;13.40;74.50
38325;DHT22;24126;52.672;13.622;2024-03-22T02:19:09;13.40;74.70
38325;DHT22;24126;52.672;13.622;2024-03-22T02:21:35;13.40;74.60
38325;DHT22;24126;52.672;13.622;2024-03-22T02:24:02;13.40;74.60
38325;DHT22;24126;52.672;13.622;2024-03-22T02:26:28;13.40;74.70
38325;DHT22;24126;52.672;13.622;2024-03-22T02:28:55;13.40;74.70
38325;DHT22;24126;52.672;13.622;2024-03-22T02:31:21;13.40;74.80
38325;DHT22;24126;52.672;13.622;2024-03-22T02:33:48;13.40;74.90
38325;DHT22;24126;52.672;13.622;2024-03-22T02:36:14;13.30;74.90
38325;DHT22;24126;52.672;13.622;2024-03-22T02:38:43;13.30;75.00
38325;DHT22;24126;52.672;13.622;2024-03-22T02:41:09;13.30;75.20
38325;DHT22;24126;52.672;13.622;2024-03-22T02:43:37;13.30;75.30
38325;DHT22;24126;52.672;13.622;2024-03-22T02:46:03;13.30;75.40
38325;DHT22;24126;52.672;13.622;2024-03-22T02:48:30;13.20;75.50
38325;DHT22;24126;52.672;13.622;2024-03-22T02:50:57;13.30;75.50
38325;DHT22;24126;52.672;13.622;2024-03-22T02:53:24;13.20;75.60
38325;DHT22;24126;52.672;13.622;2024-03-22T02:55:50;13.30;75.70
38325;DHT22;24126;52.672;13.622;2024-03-22T02:58:19;13.30;75.80
38325;DHT22;24126;52.672;13.622;2024-03-22T03:00:45;13.30;75.80
38325;DHT22;24126;52.672;13.622;2024-03-22T03:03:13;13.30;75.80
38325;DHT22;24126;52.672;13.622;2024-03-22T03:05:39;13.30;75.80
38325;DHT22;24126;52.672;13.622;2024-03-22T03:08:07;13.30;75.90
38325;DHT22;24126;52.672;13.622;2024-03-22T03:10:33;13.30;76.00
38325;DHT22;24126;52.672;13.622;2024-03-22T03:13:00;13.30;76.10
38325;DHT22;24126;52.672;13.622;2024-03-22T03:15:26;13.30;76.10
38325;DHT22;24126;52.672;13.622;2024-03-22T03:17:53;13.30;76.20
38325;DHT22;24126;52.672;13.622;2024-03-22T03:20:19;13.30;76.30
38325;DHT22;24126;52.672;13.622;2024-03-22T03:22:46;13.30;76.40
38325;DHT22;24126;52.672;13.622;2024-03-22T03:25:12;13.30;76.30
38325;DHT22;24126;52.672;13.622;2024-03-22T03:27:39;13.30;76.30
38325;DHT22;24126;52.672;13.622;2024-03-22T03:30:06;13.30;77.00
38325;DHT22;24126;52.672;13.622;2024-03-22T03:32:33;13.20;76.50
38325;DHT22;24126;52.672;13.622;2024-03-22T03:34:59;13.20;76.60
38325;DHT22;24126;52.672;13.622;2024-03-22T03:37:26;13.20;76.60
38325;DHT22;24126;52.672;13.622;2024-03-22T03:39:52;13.20;76.70
38325;DHT22;24126;52.672;13.622;2024-03-22T03:42:19;13.10;76.70
38325;DHT22;24126;52.672;13.622;2024-03-22T03:44:45;13.10;76.70
38325;DHT22;24126;52.672;13.622;2024-03-22T03:47:12;13.10;76.80
38325;DHT22;24126;52.672;13.622;2024-03-22T03:49:38;13.10;76.90
38325;DHT22;24126;52.672;13.622;2024-03-22T03:52:05;13.10;76.80
38325;DHT22;24126;52.672;13.622;2024-03-22T03:54:31;13.10;76.80
38325;DHT22;24126;52.672;13.622;2024-03-22T03:56:58;13.10;76.70
38325;DHT22;24126;52.672;13.622;2024-03-22T03:59:25;13.10;76.70
38325;DHT22;24126;52.672;13.622;2024-03-22T04:01:52;13.10;76.70
38325;DHT22;24126;52.672;13.622;2024-03-22T04:04:18;13.10;76.70
38325;DHT22;24126;52.672;13.622;2024-03-22T04:06:45;13.10;76.70
38325;DHT22;24126;52.672;13.622;2024-03-22T04:09:11;13.10;76.70
38325;DHT22;24126;52.672;13.622;2024-03-22T04:11:38;13.10;76.70
38325;DHT22;24126;52.672;13.622;2024-03-22T04:14:04;13.10;76.80
38325;DHT22;24126;52.672;13.622;2024-03-22T04:16:31;13.10;76.70
38325;DHT22;24126;52.672;13.622;2024-03-22T04:18:58;13.10;76.70
38325;DHT22;24126;52.672;13.622;2024-03-22T04:21:25;13.10;76.70
38325;DHT22;24126;52.672;13.622;2024-03-22T04:23:51;13.10;76.70
38325;DHT22;24126;52.672;13.622;2024-03-22T04:26:18;13.10;76.70
38325;DHT22;24126;52.672;13.622;2024-03-22T04:28:44;13.10;76.70
38325;DHT22;24126;52.672;13.622;2024-03-22T04:31:11;13.10;76.70
38325;DHT22;24126;52.672;13.622;2024-03-22T04:33:37;13.10;76.70
38325;DHT22;24126;52.672;13.622;2024-03-22T04:36:04;13.10;76.70
38325;DHT22;24126;52.672;13.622;2024-03-22T04:38:31;13.00;76.70
38325;DHT22;24126;52.672;13.622;2024-03-22T04:40:58;13.00;76.70
38325;DHT22;24126;52.672;13.622;2024-03-22T04:43:25;13.00;76.70
38325;DHT22;24126;52.672;13.622;2024-03-22T04:45:52;13.00;76.80
38325;DHT22;24126;52.672;13.622;2024-03-22T04:48:20;13.00;76.80
38325;DHT22;24126;52.672;13.622;2024-03-22T04:50:47;13.10;76.60
38325;DHT22;24126;52.672;13.622;2024-03-22T04:53:16;13.00;76.60
38325;DHT22;24126;52.672;13.622;2024-03-22T04:55:43;13.00;76.60
38325;DHT22;24126;52.672;13.622;2024-03-22T04:58:17;13.00;76.60
38325;DHT22;24126;52.672;13.622;2024-03-22T05:00:43;13.10;76.60
38325;DHT22;24126;52.672;13.622;2024-03-22T05:03:11;13.10;76.60
38325;DHT22;24126;52.672;13.622;2024-03-22T05:05:38;13.10;76.50
38325;DHT22;24126;52.672;13.622;2024-03-22T05:08:05;13.10;76.50
38325;DHT22;24126;52.672;13.622;2024-03-22T05:10:32;13.10;76.40
38325;DHT22;24126;52.672;13.622;2024-03-22T05:12:59;13.20;76.40
38325;DHT22;24126;52.672;13.622;2024-03-22T05:15:25;13.10;76.30
38325;DHT22;24126;52.672;13.622;2024-03-22T05:17:52;13.20;76.30
38325;DHT22;24126;52.672;13.622;2024-03-22T05:20:19;13.20;76.20
38325;DHT22;24126;52.672;13.622;2024-03-22T05:22:46;13.20;76.20
38325;DHT22;24126;52.672;13.622;2024-03-22T05:25:13;13.20;76.30
38325;DHT22;24126;52.672;13.622;2024-03-22T05:27:41;13.10;76.20
38325;DHT22;24126;52.672;13.622;2024-03-22T05:30:08;13.10;76.20
38325;DHT22;24126;52.672;13.622;2024-03-22T05:32:35;13.10;76.20
38325;DHT22;24126;52.672;13.622;2024-03-22T05:35:01;13.10;76.20
38325;DHT22;24126;52.672;13.622;2024-03-22T05:37:28;13.10;76.30
38325;DHT22;24126;52.672;13.622;2024-03-22T05:39:54;13.10;76.40
38325;DHT22;24126;52.672;13.622;2024-03-22T05:42:21;13.20;76.30
38325;DHT22;24126;52.672;13.622;2024-03-22T05:44:48;13.20;76.20
38325;DHT22;24126;52.672;13.622;2024-03-22T05:47:15;13.20;76.10
38325;DHT22;24126;52.672;13.622;2024-03-22T05:49:41;13.20;76.20
38325;DHT22;24126;52.672;13.622;2024-03-22T05:52:08;13.20;76.10
38325;DHT22;24126;52.672;13.622;2024-03-22T05:54:34;13.30;76.10
38325;DHT22;24126;52.672;13.622;2024-03-22T05:57:02;13.30;76.10
38325;DHT22;24126;52.672;13.622;2024-03-22T05:59:28;13.30;76.10
38325;DHT22;24126;52.672;13.622;2024-03-22T06:01:55;13.30;76.10
38325;DHT22;24126;52.672;13.622;2024-03-22T06:04:21;13.30;76.00
38325;DHT22;24126;52.672;13.622;2024-03-22T06:06:49;13.30;76.00
38325;DHT22;24126;52.672;13.622;2024-03-22T06:09:15;13.40;76.00
38325;DHT22;24126;52.672;13.622;2024-03-22T06:11:52;13.40;76.00
38325;DHT22;24126;52.672;13.622;2024-03-22T06:14:18;13.40;75.90
38325;DHT22;24126;52.672;13.622;2024-03-22T06:16:50;13.40;75.80
38325;DHT22;24126;52.672;13.622;2024-03-22T06:19:17;13.50;75.90
38325;DHT22;24126;52.672;13.622;2024-03-22T06:21:44;13.50;75.80
38325;DHT22;24126;52.672;13.622;2024-03-22T06:24:10;13.50;75.70
38325;DHT22;24126;52.672;13.622;2024-03-22T06:26:37;13.50;75.60
38325;DHT22;24126;52.672;13.622;2024-03-22T06:29:03;13.50;75.60
38325;DHT22;24126;52.672;13.622;2024-03-22T06:31:30;13.60;75.60
38325;DHT22;24126;52.672;13.622;2024-03-22T06:33:56;13.60;75.50
38325;DHT22;24126;52.672;13.622;2024-03-22T06:36:31;13.60;75.40
38325;DHT22;24126;52.672;13.622;2024-03-22T06:38:57;13.70;75.40
38325;DHT22;24126;52.672;13.622;2024-03-22T06:41:25;13.70;75.30
38325;DHT22;24126;52.672;13.622;2024-03-22T06:43:51;13.70;75.20
38325;DHT22;24126;52.672;13.622;2024-03-22T06:46:18;13.70;75.20
38325;DHT22;24126;52.672;13.622;2024-03-22T06:48:45;13.70;75.20
38325;DHT22;24126;52.672;13.622;2024-03-22T06:51:12;13.70;75.20
38325;DHT22;24126;52.672;13.622;2024-03-22T06:53:38;13.70;75.20
38325;DHT22;24126;52.672;13.622;2024-03-22T06:56:05;13.70;75.20
38325;DHT22;24126;52.672;13.622;2024-03-22T06:58:40;13.70;75.10
38325;DHT22;24126;52.672;13.622;2024-03-22T07:01:07;13.70;75.10
38325;DHT22;24126;52.672;13.622;2024-03-22T07:03:33;13.80;75.10
38325;DHT22;24126;52.672;13.622;2024-03-22T07:06:00;13.80;75.20
38325;DHT22;24126;52.672;13.622;2024-03-22T07:08:26;13.90;75.90
38325;DHT22;24126;52.672;13.622;2024-03-22T07:10:53;13.90;75.10
38325;DHT22;24126;52.672;13.622;2024-03-22T07:13:20;13.90;75.00
38325;DHT22;24126;52.672;13.622;2024-03-22T07:15:47;14.00;75.00
38325;DHT22;24126;52.672;13.622;2024-03-22T07:18:14;14.00;74.90
38325;DHT22;24126;52.672;13.622;2024-03-22T07:20:41;14.00;74.90
38325;DHT22;24126;52.672;13.622;2024-03-22T07:23:07;14.00;75.00
38325;DHT22;24126;52.672;13.622;2024-03-22T07:25:34;14.00;74.80
38325;DHT22;24126;52.672;13.622;2024-03-22T07:28:00;14.10;75.00
38325;DHT22;24126;52.672;13.622;2024-03-22T07:30:27;14.10;75.00
38325;DHT22;24126;52.672;13.622;2024-03-22T07:32:53;14.10;74.80
38325;DHT22;24126;52.672;13.622;2024-03-22T07:35:20;14.10;74.80
38325;DHT22;24126;52.672;13.622;2024-03-22T07:37:47;14.10;74.80
38325;DHT22;24126;52.672;13.622;2024-03-22T07:40:13;14.20;74.90
38325;DHT22;24126;52.672;13.622;2024-03-22T07:42:40;14.20;74.90
38325;DHT22;24126;52.672;13.622;2024-03-22T07:45:07;14.20;74.90
38325;DHT22;24126;52.672;13.622;2024-03-22T07:47:34;14.20;75.00
38325;DHT22;24126;52.672;13.622;2024-03-22T07:50:00;14.20;74.90
38325;DHT22;24126;52.672;13.622;2024-03-22T07:52:28;14.20;74.90
38325;DHT22;24126;52.672;13.622;2024-03-22T07:54:54;14.30;75.20
38325;DHT22;24126;52.672;13.622;2024-03-22T07:57:21;14.30;75.10
38325;DHT22;24126;52.672;13.622;2024-03-22T07:59:48;14.30;75.10
38325;DHT22;24126;52.672;13.622;2024-03-22T08:02:16;14.40;75.20
38325;DHT22;24126;52.672;13.622;2024-03-22T08:04:42;14.40;75.20
38325;DHT22;24126;52.672;13.622;2024-03-22T08:07:09;14.50;75.10
38325;DHT22;24126;52.672;13.622;2024-03-22T08:09:35;14.60;75.00
38325;DHT22;24126;52.672;13.622;2024-03-22T08:12:02;14.60;74.90
38325;DHT22;24126;52.672;13.622;2024-03-22T08:14:28;14.70;75.30
38325;DHT22;24126;52.672;13.622;2024-03-22T08:16:55;14.70;74.70
38325;DHT22;24126;52.672;13.622;2024-03-22T08:19:21;14.70;74.70
38325;DHT22;24126;52.672;13.622;2024-03-22T08:21:51;14.70;74.60
38325;DHT22;24126;52.672;13.622;2024-03-22T08:24:18;14.70;74.60
38325;DHT22;24126;52.672;13.622;2024-03-22T08:26:45;14.80;74.70
38325;DHT22;24126;52.672;13.622;2024-03-22T08:29:13;14.80;74.80
38325;DHT22;24126;52.672;13.622;2024-03-22T08:31:40;14.90;74.70
38325;DHT22;24126;52.672;13.622;2024-03-22T08:34:07;14.90;74.50
38325;DHT22;24126;52.672;13.622;2024-03-22T08:36:34;15.00;74.50
38325;DHT22;24126;52.672;13.622;2024-03-22T08:39:00;14.90;74.50
38325;DHT22;24126;52.672;13.622;2024-03-22T08:41:27;15.00;74.40
38325;DHT22;24126;52.672;13.622;2024-03-22T08:43:53;15.00;74.30
38325;DHT22;24126;52.672;13.622;2024-03-22T08:46:20;15.00;74.40
38325;DHT22;24126;52.672;13.622;2024-03-22T08:48:47;15.00;74.20
38325;DHT22;24126;52.672;13.622;2024-03-22T08:51:14;15.10;74.40
38325;DHT22;24126;52.672;13.622;2024-03-22T08:53:40;15.10;74.20
38325;DHT22;24126;52.672;13.622;2024-03-22T08:56:07;15.20;74.30
38325;DHT22;24126;52.672;13.622;2024-03-22T08:58:33;15.20;74.20
38325;DHT22;24126;52.672;13.622;2024-03-22T09:01:00;15.30;74.10
38325;DHT22;24126;52.672;13.622;2024-03-22T09:03:26;15.30;74.00
38325;DHT22;24126;52.672;13.622;2024-03-22T09:05:54;15.40;73.60
38325;DHT22;24126;52.672;13.622;2024-03-22T09:08:20;15.40;73.70
38325;DHT22;24126;52.672;13.622;2024-03-22T09:10:47;15.50;73.70
38325;DHT22;24126;52.672;13.622;2024-03-22T09:13:13;15.50;73.70
38325;DHT22;24126;52.672;13.622;2024-03-22T09:15:40;15.60;73.60
38325;DHT22;24126;52.672;13.622;2024-03-22T09:18:06;15.70;73.50
38325;DHT22;24126;52.672;13.622;2024-03-22T09:20:34;15.70;73.30
38325;DHT22;24126;52.672;13.622;2024-03-22T09:23:00;15.80;73.10
38325;DHT22;24126;52.672;13.622;2024-03-22T09:25:27;15.90;73.00
38325;DHT22;24126;52.672;13.622;2024-03-22T09:27:53;16.00;73.10
38325;DHT22;24126;52.672;13.622;2024-03-22T09:30:20;16.20;73.20
38325;DHT22;24126;52.672;13.622;2024-03-22T09:32:47;16.30;73.30
38325;DHT22;24126;52.672;13.622;2024-03-22T09:35:14;16.50;72.40
38325;DHT22;24126;52.672;13.622;2024-03-22T09:37:40;16.70;72.00
38325;DHT22;24126;52.672;13.622;2024-03-22T09:40:08;16.70;71.70
38325;DHT22;24126;52.672;13.622;2024-03-22T09:42:34;16.80;71.40
38325;DHT22;24126;52.672;13.622;2024-03-22T09:45:02;16.80;71.10
38325;DHT22;24126;52.672;13.622;2024-03-22T09:47:28;16.90;71.20
38325;DHT22;24126;52.672;13.622;2024-03-22T09:49:55;16.90;71.10
38325;DHT22;24126;52.672;13.622;2024-03-22T09:52:22;16.90;71.00
38325;DHT22;24126;52.672;13.622;2024-03-22T09:54:50;17.00;70.90
38325;DHT22;24126;52.672;13.622;2024-03-22T09:57:17;17.00;70.80
38325;DHT22;24126;52.672;13.622;2024-03-22T09:59:45;17.00;70.70
38325;DHT22;24126;52.672;13.622;2024-03-22T10:02:12;17.00;70.70
38325;DHT22;24126;52.672;13.622;2024-03-22T10:04:42;17.00;70.60
38325;DHT22;24126;52.672;13.622;2024-03-22T10:07:09;17.00;70.70
38325;DHT22;24126;52.672;13.622;2024-03-22T10:09:36;17.00;70.80
38325;DHT22;24126;52.672;13.622;2024-03-22T10:12:03;16.90;70.60
38325;DHT22;24126;52.672;13.622;2024-03-22T10:14:30;17.00;70.80
38325;DHT22;24126;52.672;13.622;2024-03-22T10:16:57;16.90;71.00
38325;DHT22;24126;52.672;13.622;2024-03-22T10:19:24;17.00;71.00
38325;DHT22;24126;52.672;13.622;2024-03-22T10:22:00;17.00;70.90
38325;DHT22;24126;52.672;13.622;2024-03-22T10:24:27;17.10;71.10
38325;DHT22;24126;52.672;13.622;2024-03-22T10:26:54;17.10;70.70
38325;DHT22;24126;52.672;13.622;2024-03-22T10:29:21;17.10;71.10
38325;DHT22;24126;52.672;13.622;2024-03-22T10:31:49;17.20;71.00
38325;DHT22;24126;52.672;13.622;2024-03-22T10:34:16;17.30;71.40
38325;DHT22;24126;52.672;13.622;2024-03-22T10:36:46;17.50;71.30
38325;DHT22;24126;52.672;13.622;2024-03-22T10:39:13;17.60;70.80
38325;DHT22;24126;52.672;13.622;2024-03-22T10:41:41;17.80;70.70
38325;DHT22;24126;52.672;13.622;2024-03-22T10:44:10;18.00;70.30
38325;DHT22;24126;52.672;13.622;2024-03-22T10:46:36;18.20;69.60
38325;DHT22;24126;52.672;13.622;2024-03-22T10:49:04;18.40;69.60
38325;DHT22;24126;52.672;13.622;2024-03-22T10:51:31;18.60;69.10
38325;DHT22;24126;52.672;13.622;2024-03-22T10:54:01;18.80;68.80
38325;DHT22;24126;52.672;13.622;2024-03-22T10:56:28;19.00;67.80
38325;DHT22;24126;52.672;13.622;2024-03-22T10:58:56;19.00;67.50
38325;DHT22;24126;52.672;13.622;2024-03-22T11:01:23;19.00;67.50
38325;DHT22;24126;52.672;13.622;2024-03-22T11:03:50;19.00;67.50
38325;DHT22;24126;52.672;13.622;2024-03-22T11:06:19;19.10;67.40
38325;DHT22;24126;52.672;13.622;2024-03-22T11:08:51;19.10;67.20
38325;DHT22;24126;52.672;13.622;2024-03-22T11:11:18;19.10;67.10
38325;DHT22;24126;52.672;13.622;2024-03-22T11:13:46;19.10;67.00
38325;DHT22;24126;52.672;13.622;2024-03-22T11:16:12;19.00;66.90
38325;DHT22;24126;52.672;13.622;2024-03-22T11:18:40;19.00;67.10
38325;DHT22;24126;52.672;13.622;2024-03-22T11:21:06;19.00;67.30
38325;DHT22;24126;52.672;13.622;2024-03-22T11:23:35;19.00;67.00
38325;DHT22;24126;52.672;13.622;2024-03-22T11:26:03;19.00;66.40
38325;DHT22;24126;52.672;13.622;2024-03-22T11:28:30;19.00;66.10
38325;DHT22;24126;52.672;13.622;2024-03-22T11:30:56;19.00;66.20
38325;DHT22;24126;52.672;13.622;2024-03-22T11:33:23;18.90;66.00
38325;DHT22;24126;52.672;13.622;2024-03-22T11:35:50;18.80;65.90
38325;DHT22;24126;52.672;13.622;2024-03-22T11:38:17;18.70;65.60
38325;DHT22;24126;52.672;13.622;2024-03-22T11:40:43;18.60;65.60
38325;DHT22;24126;52.672;13.622;2024-03-22T11:43:11;18.50;65.70
38325;DHT22;24126;52.672;13.622;2024-03-22T11:45:39;18.40;65.90
38325;DHT22;24126;52.672;13.622;2024-03-22T11:48:06;18.30;65.90
38325;DHT22;24126;52.672;13.622;2024-03-22T11:50:33;18.20;66.70
38325;DHT22;24126;52.672;13.622;2024-03-22T11:53:00;18.10;67.60
38325;DHT22;24126;52.672;13.622;2024-03-22T11:55:26;18.00;67.70
38325;DHT22;24126;52.672;13.622;2024-03-22T11:57:53;18.00;68.10
38325;DHT22;24126;52.672;13.622;2024-03-22T12:00:19;17.90;68.10
38325;DHT22;24126;52.672;13.622;2024-03-22T12:02:48;17.90;68.10
38325;DHT22;24126;52.672;13.622;2024-03-22T12:05:14;17.80;68.60
38325;DHT22;24126;52.672;13.622;2024-03-22T12:07:41;17.80;68.70
38325;DHT22;24126;52.672;13.622;2024-03-22T12:10:07;17.80;69.00
38325;DHT22;24126;52.672;13.622;2024-03-22T12:12:34;17.80;69.00
38325;DHT22;24126;52.672;13.622;2024-03-22T12:15:01;17.80;69.10
38325;DHT22;24126;52.672;13.622;2024-03-22T12:17:28;17.80;69.40
38325;DHT22;24126;52.672;13.622;2024-03-22T12:19:54;17.80;69.60
38325;DHT22;24126;52.672;13.622;2024-03-22T12:22:22;17.80;69.70
38325;DHT22;24126;52.672;13.622;2024-03-22T12:24:48;17.70;70.00
38325;DHT22;24126;52.672;13.622;2024-03-22T12:27:15;17.70;70.20
38325;DHT22;24126;52.672;13.622;2024-03-22T12:29:41;17.70;70.40
38325;DHT22;24126;52.672;13.622;2024-03-22T12:32:08;17.60;70.70
38325;DHT22;24126;52.672;13.622;2024-03-22T12:34:34;17.60;71.10
38325;DHT22;24126;52.672;13.622;2024-03-22T12:37:01;17.60;71.30
38325;DHT22;24126;52.672;13.622;2024-03-22T12:39:28;17.50;71.60
38325;DHT22;24126;52.672;13.622;2024-03-22T12:41:55;17.50;72.10
38325;DHT22;24126;52.672;13.622;2024-03-22T12:44:21;17.40;72.30
38325;DHT22;24126;52.672;13.622;2024-03-22T12:46:48;17.40;72.70
38325;DHT22;24126;52.672;13.622;2024-03-22T12:49:17;17.40;72.90
38325;DHT22;24126;52.672;13.622;2024-03-22T12:51:44;17.40;73.30
38325;DHT22;24126;52.672;13.622;2024-03-22T12:54:11;17.40;73.60
38325;DHT22;24126;52.672;13.622;2024-03-22T12:56:40;17.40;73.80
38325;DHT22;24126;52.672;13.622;2024-03-22T12:59:06;17.30;73.90
38325;DHT22;24126;52.672;13.622;2024-03-22T13:01:34;17.30;74.00
38325;DHT22;24126;52.672;13.622;2024-03-22T13:04:00;17.30;74.20
38325;DHT22;24126;52.672;13.622;2024-03-22T13:06:27;17.20;74.50
38325;DHT22;24126;52.672;13.622;2024-03-22T13:08:53;17.20;74.60
38325;DHT22;24126;52.672;13.622;2024-03-22T13:11:20;17.10;74.90
38325;DHT22;24126;52.672;13.622;2024-03-22T13:13:46;17.10;75.20
38325;DHT22;24126;52.672;13.622;2024-03-22T13:16:13;17.00;75.20
38325;DHT22;24126;52.672;13.622;2024-03-22T13:18:41;17.00;75.60
38325;DHT22;24126;52.672;13.622;2024-03-22T13:21:09;17.00;75.70
38325;DHT22;24126;52.672;13.622;2024-03-22T13:23:37;16.90;75.80
38325;DHT22;24126;52.672;13.622;2024-03-22T13:26:04;16.90;76.00
38325;DHT22;24126;52.672;13.622;2024-03-22T13:28:30;16.90;76.30
38325;DHT22;24126;52.672;13.622;2024-03-22T13:31:01;16.80;76.40
38325;DHT22;24126;52.672;13.622;2024-03-22T13:33:29;16.90;76.50
38325;DHT22;24126;52.672;13.622;2024-03-22T13:35:58;16.90;76.70
38325;DHT22;24126;52.672;13.622;2024-03-22T13:38:24;16.90;76.70
38325;DHT22;24126;52.672;13.622;2024-03-22T13:40:55;16.90;76.50
38325;DHT22;24126;52.672;13.622;2024-03-22T13:43:22;16.90;76.60
38325;DHT22;24126;52.672;13.622;2024-03-22T13:45:50;16.90;76.60
38325;DHT22;24126;52.672;13.622;2024-03-22T13:48:20;16.90;76.70
38325;DHT22;24126;52.672;13.622;2024-03-22T13:50:53;16.90;76.80
38325;DHT22;24126;52.672;13.622;2024-03-22T13:53:19;16.90;77.60
38325;DHT22;24126;52.672;13.622;2024-03-22T13:55:48;16.90;77.10
38325;DHT22;24126;52.672;13.622;2024-03-22T13:58:14;16.90;77.10
38325;DHT22;24126;52.672;13.622;2024-03-22T14:00:41;16.90;77.20
38325;DHT22;24126;52.672;13.622;2024-03-22T14:03:08;16.90;77.20
38325;DHT22;24126;52.672;13.622;2024-03-22T14:05:35;16.90;77.40
38325;DHT22;24126;52.672;13.622;2024-03-22T14:08:01;16.90;77.30
38325;DHT22;24126;52.672;13.622;2024-03-22T14:10:30;16.90;77.50
38325;DHT22;24126;52.672;13.622;2024-03-22T14:12:58;16.90;77.00
38325;DHT22;24126;52.672;13.622;2024-03-22T14:15:25;16.90;77.00
38325;DHT22;24126;52.672;13.622;2024-03-22T14:17:54;16.90;77.00
38325;DHT22;24126;52.672;13.622;2024-03-22T14:20:21;16.90;77.10
38325;DHT22;24126;52.672;13.622;2024-03-22T14:22:48;16.90;77.00
38325;DHT22;24126;52.672;13.622;2024-03-22T14:25:14;16.90;77.00
38325;DHT22;24126;52.672;13.622;2024-03-22T14:27:41;16.90;76.90
38325;DHT22;24126;52.672;13.622;2024-03-22T14:30:11;16.90;76.80
38325;DHT22;24126;52.672;13.622;2024-03-22T14:32:39;16.90;76.80
38325;DHT22;24126;52.672;13.622;2024-03-22T14:35:06;16.90;77.00
38325;DHT22;24126;52.672;13.622;2024-03-22T14:37:34;16.90;76.90
38325;DHT22;24126;52.672;13.622;2024-03-22T14:40:00;16.90;76.70
38325;DHT22;24126;52.672;13.622;2024-03-22T14:42:31;16.90;76.60
38325;DHT22;24126;52.672;13.622;2024-03-22T14:44:57;16.90;76.60
38325;DHT22;24126;52.672;13.622;2024-03-22T14:47:24;16.90;76.50
38325;DHT22;24126;52.672;13.622;2024-03-22T14:49:50;16.90;76.20
38325;DHT22;24126;52.672;13.622;2024-03-22T14:52:17;16.90;76.40
38325;DHT22;24126;52.672;13.622;2024-03-22T14:54:44;16.90;76.50
38325;DHT22;24126;52.672;13.622;2024-03-22T14:57:11;16.90;76.40
38325;DHT22;24126;52.672;13.622;2024-03-22T14:59:37;16.90;76.50
38325;DHT22;24126;52.672;13.622;2024-03-22T15:02:04;16.90;76.50
38325;DHT22;24126;52.672;13.622;2024-03-22T15:04:31;16.90;76.50
38325;DHT22;24126;52.672;13.622;2024-03-22T15:06:58;16.90;76.30
38325;DHT22;24126;52.672;13.622;2024-03-22T15:09:24;16.90;76.30
38325;DHT22;24126;52.672;13.622;2024-03-22T15:11:51;16.90;76.20
38325;DHT22;24126;52.672;13.622;2024-03-22T15:14:17;16.80;76.20